createdAt,value
2018-08-04T00:00:28.937Z,30.30
2018-08-04T00:03:09.679Z,30.30
2018-08-04T00:05:50.469Z,30.20
2018-08-04T00:08:31.260Z,30.20
2018-08-04T00:11:12.079Z,30.20
2018-08-04T00:13:53.554Z,30.20
2018-08-04T00:16:34.379Z,30.20
2018-08-04T00:19:15.106Z,30.30
2018-08-04T00:21:55.880Z,30.30
2018-08-04T00:24:36.594Z,30.40
2018-08-04T00:27:17.543Z,30.50
2018-08-04T00:29:58.214Z,30.50
2018-08-04T00:32:39.396Z,30.50
2018-08-04T00:35:20.097Z,30.60
2018-08-04T00:38:00.917Z,30.60
2018-08-04T00:40:41.649Z,30.60
2018-08-04T00:43:22.619Z,30.70
2018-08-04T00:46:03.277Z,30.70
2018-08-04T00:48:44.146Z,30.70
2018-08-04T00:51:24.814Z,30.70
2018-08-04T00:54:05.385Z,30.70
2018-08-04T00:56:47.102Z,30.70
2018-08-04T00:59:28.291Z,30.60
2018-08-04T01:02:08.864Z,30.60
2018-08-04T01:04:50.295Z,30.60
2018-08-04T01:07:30.975Z,30.60
2018-08-04T01:10:11.586Z,30.60
2018-08-04T01:12:52.280Z,30.60
2018-08-04T01:15:33.050Z,30.60
2018-08-04T01:18:14.177Z,30.60
2018-08-04T01:20:54.970Z,30.60
2018-08-04T01:23:35.921Z,30.60
2018-08-04T01:26:16.776Z,30.60
2018-08-04T01:28:58.317Z,30.60
2018-08-04T01:31:38.873Z,30.60
2018-08-04T01:34:19.849Z,30.60
2018-08-04T01:37:00.814Z,30.70
2018-08-04T01:39:42.060Z,30.70
2018-08-04T01:42:23.090Z,30.70
2018-08-04T01:45:03.649Z,30.70
2018-08-04T01:47:44.423Z,30.70
2018-08-04T01:50:26.068Z,30.70
2018-08-04T01:53:06.800Z,30.80
2018-08-04T01:55:47.552Z,30.80
2018-08-04T01:58:28.606Z,30.80
2018-08-04T02:01:10.231Z,30.80
2018-08-04T02:03:50.840Z,30.80
2018-08-04T02:06:31.617Z,30.80
2018-08-04T02:09:13.318Z,30.80
2018-08-04T02:11:56.199Z,30.80
2018-08-04T02:14:36.854Z,30.80
2018-08-04T02:17:17.569Z,30.80
2018-08-04T02:19:58.721Z,30.90
2018-08-04T02:22:39.325Z,30.90
2018-08-04T02:25:20.087Z,30.90
2018-08-04T02:28:00.741Z,30.90
2018-08-04T02:30:42.153Z,30.90
2018-08-04T02:33:23.069Z,30.70
2018-08-04T02:36:03.892Z,30.70
2018-08-04T02:38:44.510Z,30.70
2018-08-04T02:41:25.207Z,30.70
2018-08-04T02:44:05.844Z,30.70
2018-08-04T02:46:47.268Z,30.60
2018-08-04T02:49:28.134Z,30.50
2018-08-04T02:52:08.849Z,30.40
2018-08-04T02:57:32.013Z,30.10
2018-08-04T03:00:12.754Z,30.10
2018-08-04T03:02:53.563Z,30.00
2018-08-04T03:05:34.342Z,29.90
2018-08-04T03:08:16.549Z,29.80
2018-08-04T03:10:57.593Z,29.80
2018-08-04T03:13:38.461Z,29.80
2018-08-04T03:16:19.229Z,29.80
2018-08-04T03:19:01.374Z,29.70
2018-08-04T03:21:42.532Z,29.70
2018-08-04T03:24:23.313Z,29.60
2018-08-04T03:27:04.461Z,29.60
2018-08-04T03:29:45.157Z,29.50
2018-08-04T03:32:26.288Z,29.50
2018-08-04T03:35:07.073Z,29.40
2018-08-04T03:37:47.898Z,29.40
2018-08-04T03:40:29.416Z,29.40
2018-08-04T03:43:10.320Z,29.40
2018-08-04T03:45:50.951Z,29.50
2018-08-04T03:48:32.521Z,29.60
2018-08-04T03:51:15.254Z,29.70
2018-08-04T03:53:57.420Z,29.70
2018-08-04T03:56:39.754Z,29.70
2018-08-04T03:59:22.409Z,29.70
2018-08-04T04:02:05.838Z,29.70
2018-08-04T04:04:46.813Z,29.60
2018-08-04T04:07:28.627Z,29.60
2018-08-04T04:10:11.353Z,29.60
2018-08-04T04:12:53.369Z,29.50
2018-08-04T04:15:36.530Z,29.50
2018-08-04T04:18:18.927Z,29.50
2018-08-04T04:21:01.586Z,29.50
2018-08-04T04:23:43.246Z,29.50
2018-08-04T04:26:26.385Z,29.50
2018-08-04T04:29:08.548Z,29.50
2018-08-04T04:31:50.429Z,29.50
2018-08-04T04:34:32.390Z,29.50
2018-08-04T04:37:14.205Z,29.40
2018-08-04T04:39:55.556Z,29.40
2018-08-04T04:42:36.861Z,29.40
2018-08-04T04:45:18.326Z,29.30
2018-08-04T04:51:12.697Z,29.30
2018-08-04T04:53:54.244Z,29.20
2018-08-04T04:56:35.781Z,29.20
2018-08-04T04:59:18.367Z,29.20
2018-08-04T05:02:00.447Z,29.20
2018-08-04T05:04:42.183Z,29.20
2018-08-04T05:07:23.153Z,29.10
2018-08-04T05:10:05.240Z,29.10
2018-08-04T05:12:46.585Z,29.10
2018-08-04T05:15:27.384Z,29.00
2018-08-04T05:18:08.920Z,29.00
2018-08-04T05:20:51.387Z,29.00
2018-08-04T05:23:33.227Z,29.00
2018-08-04T05:26:14.989Z,29.00
2018-08-04T05:28:56.743Z,29.00
2018-08-04T05:31:39.120Z,29.10
2018-08-04T05:34:21.621Z,29.20
2018-08-04T05:37:03.602Z,29.40
2018-08-04T05:39:45.702Z,29.60
2018-08-04T05:42:27.092Z,29.80
2018-08-04T05:45:10.473Z,30.00
2018-08-04T05:47:52.195Z,30.20
2018-08-04T05:50:34.557Z,30.40
2018-08-04T05:53:16.348Z,30.60
2018-08-04T05:55:58.312Z,30.70
2018-08-04T05:58:40.669Z,31.00
2018-08-04T06:01:22.573Z,31.30
2018-08-04T06:04:04.305Z,31.60
2018-08-04T06:06:46.704Z,31.80
2018-08-04T06:09:27.838Z,32.00
2018-08-04T06:12:10.213Z,32.20
2018-08-04T06:14:52.150Z,32.30
2018-08-04T06:17:34.266Z,32.70
2018-08-04T06:20:17.934Z,33.00
2018-08-04T06:22:59.050Z,33.40
2018-08-04T06:25:40.073Z,33.80
2018-08-04T06:28:21.810Z,34.20
2018-08-04T06:31:03.070Z,34.50
2018-08-04T06:33:45.396Z,34.60
2018-08-04T06:36:26.940Z,34.70
2018-08-04T06:39:08.700Z,34.70
2018-08-04T06:41:50.183Z,34.60
2018-08-04T06:44:32.192Z,34.50
2018-08-04T06:47:13.861Z,34.30
2018-08-04T06:49:55.904Z,34.40
2018-08-04T06:52:37.078Z,34.30
2018-08-04T06:55:19.656Z,34.50
2018-08-04T06:58:02.363Z,34.70
2018-08-04T07:00:44.368Z,35.00
2018-08-04T07:03:26.472Z,35.50
2018-08-04T07:06:09.489Z,35.80
2018-08-04T07:08:51.677Z,36.10
2018-08-04T07:11:34.235Z,36.40
2018-08-04T07:14:15.587Z,36.60
2018-08-04T07:19:39.867Z,36.90
2018-08-04T07:22:22.098Z,37.10
2018-08-04T07:25:03.349Z,37.20
2018-08-04T07:27:45.591Z,37.30
2018-08-04T07:33:10.632Z,37.20
2018-08-04T07:35:52.512Z,37.20
2018-08-04T07:38:34.006Z,37.20
2018-08-04T07:41:15.663Z,37.30
2018-08-04T07:43:58.986Z,37.30
2018-08-04T07:46:41.359Z,37.30
2018-08-04T07:49:23.199Z,37.20
2018-08-04T07:52:04.223Z,37.10
2018-08-04T07:54:45.949Z,36.80
2018-08-04T07:57:27.653Z,36.40
2018-08-04T08:00:08.470Z,36.20
2018-08-04T08:02:50.542Z,35.90
2018-08-04T08:05:34.160Z,35.60
2018-08-04T08:08:17.352Z,35.50
2018-08-04T08:10:59.411Z,35.40
2018-08-04T08:13:41.272Z,35.30
2018-08-04T08:16:24.162Z,35.30
2018-08-04T08:19:07.673Z,35.30
2018-08-04T08:21:49.837Z,35.30
2018-08-04T08:24:32.269Z,35.20
2018-08-04T08:27:15.310Z,35.10
2018-08-04T08:29:57.181Z,35.00
2018-08-04T08:32:39.146Z,35.00
2018-08-04T08:35:20.728Z,35.00
2018-08-04T08:38:03.116Z,35.10
2018-08-04T08:40:44.426Z,35.20
2018-08-04T08:43:26.988Z,35.20
2018-08-04T08:46:08.789Z,35.10
2018-08-04T08:48:51.540Z,35.10
2018-08-04T08:51:33.584Z,35.10
2018-08-04T08:54:15.839Z,35.10
2018-08-04T08:56:57.124Z,35.20
2018-08-04T08:59:38.230Z,35.20
2018-08-04T09:02:19.021Z,35.20
2018-08-04T09:04:59.589Z,35.30
2018-08-04T09:07:40.763Z,35.30
2018-08-04T09:10:22.122Z,35.40
2018-08-04T09:13:03.479Z,35.50
2018-08-04T09:15:44.667Z,35.50
2018-08-04T09:18:25.543Z,35.50
2018-08-04T09:21:06.091Z,35.50
2018-08-04T09:26:28.951Z,35.60
2018-08-04T09:29:10.465Z,35.60
2018-08-04T09:31:51.100Z,35.50
2018-08-04T09:34:31.745Z,35.50
2018-08-04T09:37:13.260Z,35.60
2018-08-04T09:39:54.177Z,35.80
2018-08-04T09:42:34.759Z,36.00
2018-08-04T09:45:15.549Z,36.20
2018-08-04T09:47:56.633Z,36.50
2018-08-04T09:50:37.393Z,36.80
2018-08-04T09:53:19.857Z,36.90
2018-08-04T09:56:01.226Z,36.90
2018-08-04T10:01:41.345Z,36.80
2018-08-04T10:04:22.105Z,36.70
2018-08-04T10:07:03.345Z,36.60
2018-08-04T10:09:44.127Z,36.70
2018-08-04T10:12:25.847Z,36.70
2018-08-04T10:15:06.941Z,36.60
2018-08-04T10:17:47.759Z,36.40
2018-08-04T10:20:28.448Z,36.30
2018-08-04T10:23:09.432Z,36.30
2018-08-04T10:25:50.076Z,36.20
2018-08-04T10:28:30.716Z,36.30
2018-08-04T10:31:11.395Z,36.30
2018-08-04T10:33:52.278Z,36.40
2018-08-04T10:36:32.936Z,36.40
2018-08-04T10:39:14.015Z,36.20
2018-08-04T10:41:55.333Z,36.00
2018-08-04T10:44:36.069Z,36.00
2018-08-04T10:47:17.532Z,36.10
2018-08-04T10:49:58.241Z,36.30
2018-08-04T10:52:39.088Z,36.40
2018-08-04T10:55:19.885Z,36.60
2018-08-04T10:58:00.457Z,36.70
2018-08-04T11:00:41.105Z,36.90
2018-08-04T11:03:21.854Z,37.00
2018-08-04T11:06:02.458Z,37.20
2018-08-04T11:08:43.882Z,37.20
2018-08-04T11:14:06.418Z,37.10
2018-08-04T11:16:47.640Z,37.20
2018-08-04T11:19:28.697Z,37.40
2018-08-04T11:22:09.344Z,37.40
2018-08-04T11:24:50.083Z,37.40
2018-08-04T11:30:12.797Z,37.60
2018-08-04T11:32:53.536Z,37.70
2018-08-04T11:35:34.782Z,37.90
2018-08-04T11:38:16.322Z,37.90
2018-08-04T11:40:57.788Z,37.70
2018-08-04T11:43:38.522Z,37.70
2018-08-04T11:46:19.941Z,37.80
2018-08-04T11:49:01.066Z,37.80
2018-08-04T11:51:41.886Z,37.90
2018-08-04T11:54:22.837Z,37.90
2018-08-04T11:57:03.566Z,37.80
2018-08-04T11:59:44.422Z,37.80
2018-08-04T12:02:25.127Z,37.70
2018-08-04T12:05:05.741Z,37.60
2018-08-04T12:07:46.612Z,37.60
2018-08-04T12:10:27.237Z,37.50
2018-08-04T12:13:07.948Z,37.40
2018-08-04T12:18:31.340Z,37.30
2018-08-04T12:23:53.156Z,37.40
2018-08-04T12:26:33.973Z,37.40
2018-08-04T12:29:14.760Z,37.50
2018-08-04T12:31:55.561Z,37.60
2018-08-04T12:34:36.228Z,37.70
2018-08-04T12:37:17.152Z,37.80
2018-08-04T12:39:57.826Z,37.90
2018-08-04T12:42:38.633Z,38.10
2018-08-04T12:45:19.426Z,38.20
2018-08-04T12:48:00.324Z,38.10
2018-08-04T12:53:22.915Z,38.10
2018-08-04T12:56:03.890Z,38.10
2018-08-04T12:58:45.005Z,38.10
2018-08-04T13:01:25.737Z,38.10
2018-08-04T13:04:07.197Z,38.10
2018-08-04T13:06:47.788Z,38.10
2018-08-04T13:09:29.249Z,38.10
2018-08-04T13:12:10.354Z,38.20
2018-08-04T13:14:51.133Z,38.20
2018-08-04T13:20:12.992Z,38.30
2018-08-04T13:22:54.021Z,38.30
2018-08-04T13:25:34.688Z,38.30
2018-08-04T13:28:15.440Z,38.20
2018-08-04T13:30:56.192Z,38.10
2018-08-04T13:33:36.811Z,38.10
2018-08-04T13:36:17.761Z,38.10
2018-08-04T13:38:58.477Z,38.00
2018-08-04T13:41:40.003Z,38.10
2018-08-04T13:44:21.055Z,38.10
2018-08-04T13:47:02.003Z,38.10
2018-08-04T13:49:42.808Z,38.10
2018-08-04T13:52:23.935Z,38.10
2018-08-04T13:55:04.949Z,38.00
2018-08-04T13:57:45.637Z,38.10
2018-08-04T14:00:26.235Z,38.20
2018-08-04T14:03:07.560Z,38.20
2018-08-04T14:05:48.997Z,38.20
2018-08-04T14:08:29.844Z,38.20
2018-08-04T14:11:10.597Z,38.20
2018-08-04T14:13:51.871Z,38.20
2018-08-04T14:16:33.077Z,38.30
2018-08-04T14:19:14.672Z,38.30
2018-08-04T14:21:55.385Z,38.40
2018-08-04T14:24:36.021Z,38.50
2018-08-04T14:27:17.423Z,38.40
2018-08-04T14:29:58.610Z,38.30
2018-08-04T14:32:39.414Z,38.20
2018-08-04T14:35:20.297Z,38.10
2018-08-04T14:38:01.002Z,37.90
2018-08-04T14:40:41.978Z,37.80
2018-08-04T14:43:24.111Z,37.80
2018-08-04T14:46:06.612Z,37.80
2018-08-04T14:48:49.721Z,37.80
2018-08-04T14:51:31.699Z,37.80
2018-08-04T14:54:12.475Z,37.80
2018-08-04T14:56:55.964Z,37.90
2018-08-04T15:02:18.487Z,37.50
2018-08-04T15:07:41.163Z,37.40
2018-08-04T15:10:22.681Z,37.40
2018-08-04T15:13:03.936Z,37.40
2018-08-04T15:15:46.333Z,37.30
2018-08-04T15:18:26.934Z,37.10
2018-08-04T15:21:07.621Z,36.80
2018-08-04T15:23:49.166Z,36.40
2018-08-04T15:26:30.758Z,36.20
2018-08-04T15:31:54.242Z,35.80
2018-08-04T15:34:35.095Z,35.50
2018-08-04T15:37:15.783Z,35.30
2018-08-04T15:39:56.663Z,35.10
2018-08-04T15:42:37.808Z,34.70
2018-08-04T15:45:18.523Z,34.50
2018-08-04T15:47:59.578Z,34.40
2018-08-04T15:50:40.220Z,34.30
2018-08-04T15:53:21.160Z,34.30
2018-08-04T15:56:01.826Z,34.20
2018-08-04T15:58:43.358Z,34.00
2018-08-04T16:01:24.542Z,33.90
2018-08-04T16:04:05.481Z,33.70
2018-08-04T16:06:46.253Z,33.50
2018-08-04T16:09:27.040Z,33.30
2018-08-04T16:12:07.902Z,33.30
2018-08-04T16:14:48.586Z,33.30
2018-08-04T16:17:29.591Z,33.30
2018-08-04T16:20:10.176Z,33.30
2018-08-04T16:22:51.363Z,33.30
2018-08-04T16:25:31.942Z,33.30
2018-08-04T16:28:12.865Z,33.20
2018-08-04T16:30:54.090Z,33.10
2018-08-04T16:33:35.386Z,33.00
2018-08-04T16:36:16.350Z,32.80
2018-08-04T16:38:57.844Z,32.70
2018-08-04T16:44:20.613Z,32.70
2018-08-04T16:47:01.440Z,32.60
2018-08-04T16:49:42.099Z,32.60
2018-08-04T16:52:23.061Z,32.60
2018-08-04T16:55:03.818Z,32.50
2018-08-04T16:57:44.475Z,32.40
2018-08-04T17:00:26.075Z,32.30
2018-08-04T17:03:06.785Z,32.30
2018-08-04T17:05:47.665Z,32.40
2018-08-04T17:08:28.437Z,32.40
2018-08-04T17:11:09.444Z,32.30
2018-08-04T17:13:50.502Z,32.40
2018-08-04T17:16:31.934Z,32.40
2018-08-04T17:19:12.839Z,32.30
2018-08-04T17:21:53.881Z,32.40
2018-08-04T17:24:35.322Z,32.40
2018-08-04T17:27:16.414Z,32.40
2018-08-04T17:29:57.086Z,32.30
2018-08-04T17:32:38.393Z,32.20
2018-08-04T17:35:19.729Z,32.20
2018-08-04T17:38:00.562Z,32.20
2018-08-04T17:40:41.365Z,32.20
2018-08-04T17:43:22.694Z,32.20
2018-08-04T17:46:03.689Z,32.10
2018-08-04T17:48:45.059Z,32.10
2018-08-04T17:51:26.087Z,32.00
2018-08-04T17:54:06.842Z,32.00
2018-08-04T17:56:47.698Z,32.00
2018-08-04T17:59:28.689Z,31.90
2018-08-04T18:02:09.994Z,31.90
2018-08-04T18:04:51.042Z,31.80
2018-08-04T18:07:31.822Z,31.80
2018-08-04T18:10:12.394Z,31.80
2018-08-04T18:12:53.453Z,31.70
2018-08-04T18:15:35.006Z,31.60
2018-08-04T18:18:15.870Z,31.50
2018-08-04T18:20:56.548Z,31.50
2018-08-04T18:23:37.459Z,31.50
2018-08-04T18:26:18.444Z,31.40
2018-08-04T18:29:00.021Z,31.50
2018-08-04T18:31:41.049Z,31.50
2018-08-04T18:34:21.996Z,31.40
2018-08-04T18:37:02.697Z,31.40
2018-08-04T18:39:43.660Z,31.40
2018-08-04T18:42:25.138Z,31.40
2018-08-04T18:45:05.706Z,31.40
2018-08-04T18:47:46.478Z,31.40
2018-08-04T18:50:27.634Z,31.30
2018-08-04T18:53:09.262Z,31.30
2018-08-04T18:55:50.053Z,31.30
2018-08-04T18:58:30.804Z,31.30
2018-08-04T19:01:11.484Z,31.30
2018-08-04T19:03:52.385Z,31.30
2018-08-04T19:06:34.354Z,31.20
2018-08-04T19:09:16.023Z,31.20
2018-08-04T19:11:58.491Z,31.20
2018-08-04T19:14:40.633Z,31.20
2018-08-04T19:17:22.337Z,31.20
2018-08-04T19:20:03.629Z,31.10
2018-08-04T19:25:25.992Z,31.10
2018-08-04T19:28:06.795Z,31.00
2018-08-04T19:30:47.533Z,31.00
2018-08-04T19:33:28.248Z,31.00
2018-08-04T19:36:09.189Z,30.90
2018-08-04T19:38:50.146Z,30.90
2018-08-04T19:41:31.102Z,30.90
2018-08-04T19:44:11.796Z,30.90
2018-08-04T19:46:52.530Z,30.90
2018-08-04T19:49:33.193Z,30.80
2018-08-04T19:52:14.284Z,30.80
2018-08-04T19:54:55.522Z,30.80
2018-08-04T19:57:36.067Z,30.80
2018-08-04T20:00:16.937Z,30.80
2018-08-04T20:02:58.039Z,30.70
2018-08-04T20:05:38.790Z,30.70
2018-08-04T20:08:19.493Z,30.70
2018-08-04T20:11:00.273Z,30.70
2018-08-04T20:13:41.763Z,30.70
2018-08-04T20:16:22.442Z,30.60
2018-08-04T20:19:03.389Z,30.60
2018-08-04T20:21:44.237Z,30.60
2018-08-04T20:24:25.121Z,30.60
2018-08-04T20:27:06.058Z,30.60
2018-08-04T20:29:46.662Z,30.50
2018-08-04T20:32:27.535Z,30.50
2018-08-04T20:35:08.247Z,30.40
2018-08-04T20:37:49.065Z,30.40
2018-08-04T20:40:30.021Z,30.40
2018-08-04T20:43:10.861Z,30.40
2018-08-04T20:45:51.719Z,30.40
2018-08-04T20:48:32.721Z,30.40
2018-08-04T20:51:13.514Z,30.30
2018-08-04T20:53:54.254Z,30.30
2018-08-04T20:56:35.302Z,30.30
2018-08-04T20:59:17.233Z,30.20
2018-08-04T21:01:58.192Z,30.20
2018-08-04T21:04:39.405Z,30.20
2018-08-04T21:07:21.049Z,30.20
2018-08-04T21:10:01.635Z,30.10
2018-08-04T21:12:43.018Z,30.20
2018-08-04T21:15:24.019Z,30.20
2018-08-04T21:20:45.951Z,30.00
2018-08-04T21:23:27.497Z,29.90
2018-08-04T21:26:08.169Z,29.90
2018-08-04T21:28:48.979Z,29.90
2018-08-04T21:34:12.345Z,29.80
2018-08-04T21:36:53.414Z,29.80
2018-08-04T21:39:34.201Z,29.90
2018-08-04T21:42:14.969Z,29.90
2018-08-04T21:44:55.571Z,29.80
2018-08-04T21:47:36.096Z,29.80
2018-08-04T21:50:16.655Z,29.80
2018-08-04T21:52:57.475Z,29.80
2018-08-04T21:55:38.577Z,29.70
2018-08-04T21:58:19.457Z,29.70
2018-08-04T22:01:05.061Z,29.70
2018-08-04T22:03:45.892Z,29.70
2018-08-04T22:06:26.788Z,29.70
2018-08-04T22:09:08.292Z,29.80
2018-08-04T22:11:48.967Z,29.80
2018-08-04T22:14:29.746Z,29.70
2018-08-04T22:17:10.393Z,29.70
2018-08-04T22:19:51.878Z,29.70
2018-08-04T22:25:14.978Z,29.70
2018-08-04T22:27:56.904Z,29.70
2018-08-04T22:30:38.108Z,29.70
2018-08-04T22:33:18.953Z,29.70
2018-08-04T22:35:59.924Z,29.60
2018-08-04T22:38:41.396Z,29.60
2018-08-04T22:41:22.401Z,29.60
2018-08-04T22:44:03.238Z,29.60
2018-08-04T22:46:44.220Z,29.60
2018-08-04T22:49:25.056Z,29.60
2018-08-04T22:52:06.053Z,29.60
2018-08-04T22:54:46.622Z,29.80
2018-08-04T22:57:27.386Z,29.80
2018-08-04T23:00:08.062Z,29.90
2018-08-04T23:02:48.922Z,29.90
2018-08-04T23:05:29.849Z,29.90
2018-08-04T23:08:11.341Z,29.90
2018-08-04T23:10:52.605Z,29.90
2018-08-04T23:13:33.236Z,30.00
2018-08-04T23:16:13.921Z,30.00
2018-08-04T23:18:54.722Z,30.00
2018-08-04T23:21:35.388Z,29.90
2018-08-04T23:24:15.985Z,30.00
2018-08-04T23:26:56.785Z,30.00
2018-08-04T23:29:37.514Z,29.90
2018-08-04T23:32:18.453Z,29.90
2018-08-04T23:34:58.998Z,29.80
2018-08-04T23:37:39.693Z,29.80
2018-08-04T23:40:20.680Z,29.90
2018-08-04T23:43:01.837Z,29.90
2018-08-04T23:45:42.461Z,29.80
2018-08-04T23:48:23.169Z,29.80
2018-08-04T23:51:03.744Z,29.80
2018-08-04T23:53:44.455Z,29.90
2018-08-04T23:59:06.917Z,29.90
